Time;durP1;ratioP1;P1;durP2;ratioP2;P2;SDS_P1;SDS_P2;PMS_P1;PMS_P2;Temp;Humidity;BMP_temperature;BMP_pressure;BME280_temperature;BME280_humidity;BME280_pressure;Samples;Min_cycle;Max_cycle;Signal;HPM_P1;HPM_P2
2023/06/16 00:00:19;;;;;;;11.02;8.88;;;14.70;99.90;;;;;;5114319;27;20046;-38
2023/06/16 00:02:45;;;;;;;10.23;7.53;;;14.70;99.90;;;;;;5097344;27;20672;-38
2023/06/16 00:05:12;;;;;;;11.60;8.40;;;14.70;99.90;;;;;;5114689;27;20031;-39
2023/06/16 00:07:38;;;;;;;12.77;9.77;;;14.60;99.90;;;;;;5115056;27;20039;-39
2023/06/16 00:10:06;;;;;;;9.68;8.50;;;14.60;99.90;;;;;;5097122;27;20058;-39
2023/06/16 00:12:33;;;;;;;10.32;9.23;;;14.60;99.90;;;;;;5114297;27;20051;-39
2023/06/16 00:14:58;;;;;;;12.10;9.32;;;14.60;99.90;;;;;;5114730;27;20076;-38
2023/06/16 00:17:26;;;;;;;11.88;9.48;;;14.60;99.90;;;;;;5124079;27;20211;-39
2023/06/16 00:19:54;;;;;;;12.10;9.60;;;14.60;99.90;;;;;;5119454;27;20132;-39
2023/06/16 00:22:20;;;;;;;12.40;9.07;;;14.50;99.90;;;;;;5105760;27;20072;-39
2023/06/16 00:24:46;;;;;;;11.10;8.32;;;14.50;99.90;;;;;;5136282;27;20074;-39
2023/06/16 00:27:12;;;;;;;10.10;9.10;;;14.50;99.90;;;;;;5135300;27;20049;-39
2023/06/16 00:29:40;;;;;;;19.83;8.88;;;14.40;99.90;;;;;;5135422;27;20866;-39
2023/06/16 00:32:06;;;;;;;11.05;10.05;;;14.40;99.90;;;;;;5134917;27;20043;-38
2023/06/16 00:34:32;;;;;;;10.25;9.02;;;14.40;99.90;;;;;;5135509;27;20094;-39
2023/06/16 00:36:58;;;;;;;10.88;9.88;;;14.40;99.90;;;;;;5121739;27;20047;-38
2023/06/16 00:39:24;;;;;;;13.23;10.20;;;14.40;99.90;;;;;;5108258;27;20082;-39
2023/06/16 00:41:50;;;;;;;13.02;9.65;;;14.30;99.90;;;;;;5114580;27;20053;-39
2023/06/16 00:44:15;;;;;;;14.95;10.35;;;14.30;99.90;;;;;;5114098;27;20040;-39
2023/06/16 00:46:41;;;;;;;11.50;10.30;;;14.20;99.90;;;;;;5122559;27;20078;-39
2023/06/16 00:49:07;;;;;;;13.32;9.88;;;14.30;99.90;;;;;;5135301;27;20051;-38
2023/06/16 00:51:33;;;;;;;11.45;10.20;;;14.20;99.90;;;;;;5134791;27;20391;-39
2023/06/16 00:53:59;;;;;;;13.05;10.48;;;14.30;99.90;;;;;;5134625;27;20479;-38
2023/06/16 00:56:26;;;;;;;11.65;10.45;;;14.30;99.90;;;;;;5134594;27;20934;-38
2023/06/16 00:58:53;;;;;;;13.43;10.30;;;14.30;99.90;;;;;;5134710;27;20045;-38
2023/06/16 01:01:24;;;;;;;13.32;10.27;;;14.30;99.90;;;;;;5124406;27;20061;-38
2023/06/16 01:03:51;;;;;;;15.57;9.93;;;14.30;99.90;;;;;;5114544;27;20043;-39
2023/06/16 01:06:38;;;;;;;11.10;10.00;;;14.30;99.90;;;;;;5114309;27;20044;-39
2023/06/16 01:09:40;;;;;;;12.07;10.88;;;14.30;99.90;;;;;;5114615;27;20082;-43
2023/06/16 01:12:26;;;;;;;12.05;11.00;;;14.30;99.90;;;;;;5113916;27;20055;-38
2023/06/16 01:15:04;;;;;;;13.20;10.80;;;14.30;99.90;;;;;;5114400;27;20433;-38
2023/06/16 01:17:33;;;;;;;14.48;10.85;;;14.30;99.90;;;;;;5113599;27;20043;-39
2023/06/16 01:20:24;;;;;;;12.18;10.77;;;14.30;99.90;;;;;;5099435;27;20103;-39
2023/06/16 01:23:02;;;;;;;13.43;11.18;;;14.30;99.90;;;;;;5134203;27;20046;-38
2023/06/16 01:25:31;;;;;;;12.57;10.73;;;14.30;99.90;;;;;;5134486;27;20412;-38
2023/06/16 01:28:00;;;;;;;12.52;11.23;;;14.30;99.90;;;;;;5133000;27;20433;-39
2023/06/16 01:30:30;;;;;;;12.07;10.98;;;14.30;99.90;;;;;;5134650;27;20299;-39
2023/06/16 01:32:57;;;;;;;17.10;11.57;;;14.30;99.90;;;;;;5134507;27;20066;-39
2023/06/16 01:35:24;;;;;;;13.00;11.70;;;14.20;99.90;;;;;;5134593;27;20114;-39
2023/06/16 01:37:51;;;;;;;13.63;12.20;;;14.20;99.90;;;;;;5109355;27;20472;-39
2023/06/16 01:40:19;;;;;;;14.50;12.02;;;14.20;99.90;;;;;;5108570;27;20475;-38
2023/06/16 01:42:47;;;;;;;13.35;12.00;;;14.20;99.90;;;;;;5100146;27;20655;-39
2023/06/16 01:45:16;;;;;;;14.00;12.50;;;14.30;99.90;;;;;;5113686;27;20056;-38
2023/06/16 01:47:43;;;;;;;13.05;11.73;;;14.20;99.90;;;;;;5113366;27;20088;-39
2023/06/16 01:50:11;;;;;;;13.82;11.77;;;14.30;99.90;;;;;;5113188;27;20079;-39
2023/06/16 01:52:36;;;;;;;13.77;12.48;;;14.20;99.90;;;;;;5115216;27;20140;-39
2023/06/16 01:55:02;;;;;;;14.68;13.18;;;14.20;99.90;;;;;;5117628;27;20525;-38
2023/06/16 01:57:28;;;;;;;13.23;12.02;;;14.10;99.90;;;;;;5116922;27;20346;-39
2023/06/16 02:00:01;;;;;;;15.55;14.00;;;14.10;99.90;;;;;;5099282;27;20382;-38
2023/06/16 02:02:28;;;;;;;;;;;14.00;99.90;;;;;;5098656;27;20047;-38
2023/06/16 02:04:55;;;;;;;15.05;13.63;;;14.00;99.90;;;;;;5098865;27;20030;-39
2023/06/16 02:07:31;;;;;;;16.63;14.68;;;13.90;99.90;;;;;;5116683;27;20062;-38
2023/06/16 02:10:02;;;;;;;16.85;15.05;;;14.00;99.90;;;;;;5117415;27;20160;-39
2023/06/16 02:12:28;;;;;;;18.13;16.40;;;13.90;99.90;;;;;;5117609;27;20123;-38
2023/06/16 02:14:55;;;;;;;18.42;16.65;;;13.90;99.90;;;;;;5117034;27;20059;-38
2023/06/16 02:17:26;;;;;;;17.90;16.17;;;13.90;99.90;;;;;;5116589;27;20243;-38
2023/06/16 02:19:55;;;;;;;18.92;16.92;;;13.90;99.90;;;;;;5119055;27;20122;-38
2023/06/16 02:22:21;;;;;;;17.45;15.82;;;13.90;99.90;;;;;;5137652;27;20049;-38
2023/06/16 02:24:47;;;;;;;16.77;15.18;;;13.90;99.90;;;;;;5118754;27;20042;-41
2023/06/16 02:27:13;;;;;;;18.25;16.45;;;13.90;99.90;;;;;;5137731;27;20438;-38
2023/06/16 02:29:40;;;;;;;18.77;17.02;;;13.90;99.90;;;;;;5137193;27;20178;-38
2023/06/16 02:32:06;;;;;;;19.20;17.50;;;13.90;99.90;;;;;;5136733;27;20483;-38
2023/06/16 02:34:32;;;;;;;18.50;16.77;;;13.80;99.90;;;;;;5136819;27;20061;-38
2023/06/16 02:36:58;;;;;;;19.98;18.17;;;13.80;99.90;;;;;;5103581;27;20105;-39
2023/06/16 02:39:24;;;;;;;18.17;16.52;;;13.80;99.90;;;;;;5107152;27;20046;-39
2023/06/16 02:41:50;;;;;;;18.50;16.80;;;13.80;99.90;;;;;;5116088;27;20046;-38
2023/06/16 02:44:16;;;;;;;17.98;16.20;;;13.70;99.90;;;;;;5131411;27;20063;-38
2023/06/16 02:46:41;;;;;;;18.88;16.95;;;13.70;99.90;;;;;;5105403;27;20167;-38
2023/06/16 02:49:07;;;;;;;20.17;18.13;;;13.70;99.90;;;;;;5097703;27;20039;-38
2023/06/16 02:51:34;;;;;;;22.17;20.05;;;13.70;99.90;;;;;;5116520;27;20035;-39
2023/06/16 02:54:00;;;;;;;21.30;19.50;;;13.60;99.90;;;;;;5115969;27;20478;-38
2023/06/16 02:56:28;;;;;;;22.70;20.40;;;13.60;99.90;;;;;;5116015;27;20049;-38
2023/06/16 02:58:55;;;;;;;21.45;19.50;;;13.60;99.90;;;;;;5116201;27;20043;-38
2023/06/16 03:01:21;;;;;;;21.83;19.60;;;13.60;99.90;;;;;;5115566;27;20047;-38
2023/06/16 03:03:48;;;;;;;23.10;20.90;;;13.60;99.90;;;;;;5116858;27;20506;-38
2023/06/16 03:06:14;;;;;;;21.65;19.58;;;13.60;99.90;;;;;;5116901;27;20196;-38
2023/06/16 03:08:40;;;;;;;22.13;20.20;;;13.60;99.90;;;;;;5116504;27;20121;-38
2023/06/16 03:11:05;;;;;;;25.10;22.77;;;13.60;99.90;;;;;;5115676;27;20477;-38
2023/06/16 03:13:31;;;;;;;26.42;24.02;;;13.60;99.90;;;;;;5116037;27;20518;-38
2023/06/16 03:15:57;;;;;;;26.20;23.75;;;13.60;99.90;;;;;;5115512;27;20122;-38
2023/06/16 03:18:23;;;;;;;25.95;23.45;;;13.60;99.90;;;;;;5116355;27;20038;-38
2023/06/16 03:20:49;;;;;;;26.25;23.88;;;13.60;99.90;;;;;;5115348;27;20475;-38
2023/06/16 03:23:14;;;;;;;23.20;21.20;;;13.60;99.90;;;;;;5132879;27;20050;-39
2023/06/16 03:25:40;;;;;;;22.75;20.73;;;13.60;99.90;;;;;;5135552;27;20110;-39
2023/06/16 03:28:07;;;;;;;26.60;24.17;;;13.60;99.90;;;;;;5117141;27;20387;-39
2023/06/16 03:30:33;;;;;;;24.95;22.52;;;13.70;99.90;;;;;;5135790;27;20547;-38
2023/06/16 03:32:58;;;;;;;25.20;22.90;;;13.70;99.90;;;;;;5136289;27;20069;-38
2023/06/16 03:35:30;;;;;;;25.35;23.00;;;13.70;99.90;;;;;;5136461;27;20039;-38
2023/06/16 03:37:56;;;;;;;24.20;22.00;;;13.70;99.90;;;;;;5109707;27;20043;-38
2023/06/16 03:40:21;;;;;;;24.60;22.38;;;13.80;99.90;;;;;;5073574;27;20132;-38
2023/06/16 03:42:47;;;;;;;24.10;22.00;;;13.80;99.90;;;;;;5114315;27;20432;-38
2023/06/16 03:45:13;;;;;;;25.27;22.95;;;13.90;99.90;;;;;;5115551;27;20143;-38
2023/06/16 03:47:38;;;;;;;24.50;22.13;;;14.00;99.90;;;;;;5113900;27;20043;-38
2023/06/16 03:50:04;;;;;;;21.00;19.30;;;14.20;99.90;;;;;;5113909;27;20160;-39
2023/06/16 03:52:30;;;;;;;20.30;18.35;;;14.70;99.90;;;;;;5115183;27;20064;-39
2023/06/16 03:54:57;;;;;;;24.00;21.90;;;15.00;99.90;;;;;;5115436;27;20482;-38
2023/06/16 03:57:22;;;;;;;21.38;19.48;;;15.10;99.90;;;;;;5114301;27;20047;-39
2023/06/16 03:59:48;;;;;;;21.23;19.23;;;15.00;99.90;;;;;;5096433;27;20209;-39
2023/06/16 04:02:14;;;;;;;23.30;21.30;;;14.80;99.90;;;;;;5107673;27;20039;-39
2023/06/16 04:04:42;;;;;;;24.38;22.27;;;14.70;99.90;;;;;;5113034;27;20071;-39
2023/06/16 04:07:11;;;;;;;22.90;21.00;;;14.70;99.90;;;;;;5113288;27;20047;-38
2023/06/16 04:09:37;;;;;;;22.75;20.73;;;14.80;99.90;;;;;;5115437;27;20043;-39
2023/06/16 04:12:02;;;;;;;24.48;22.38;;;14.70;99.90;;;;;;5114586;27;20039;-39
2023/06/16 04:14:28;;;;;;;25.77;23.65;;;14.70;99.90;;;;;;5096724;27;20446;-38
2023/06/16 04:16:54;;;;;;;22.38;20.27;;;14.70;99.90;;;;;;5099780;27;20096;-39
2023/06/16 04:19:19;;;;;;;23.17;21.17;;;14.70;99.90;;;;;;5135798;27;20067;-39
2023/06/16 04:21:46;;;;;;;25.58;23.35;;;14.70;99.90;;;;;;5129531;27;20043;-39
2023/06/16 04:24:11;;;;;;;23.17;21.08;;;14.90;99.90;;;;;;5096572;27;20086;-39
2023/06/16 04:26:41;;;;;;;22.85;20.98;;;15.40;99.90;;;;;;5100721;27;20176;-39
2023/06/16 04:29:07;;;;;;;22.75;20.75;;;16.30;99.90;;;;;;5136004;27;20051;-39
2023/06/16 04:31:37;;;;;;;22.25;20.33;;;17.30;99.90;;;;;;5110386;27;20588;-39
2023/06/16 04:34:03;;;;;;;20.73;18.88;;;18.20;99.90;;;;;;5115234;27;20050;-39
2023/06/16 04:36:30;;;;;;;22.42;20.27;;;19.20;99.90;;;;;;5111713;27;20039;-39
2023/06/16 04:38:56;;;;;;;19.67;17.88;;;20.00;99.90;;;;;;5104355;27;20149;-40
2023/06/16 04:41:23;;;;;;;20.77;18.88;;;20.60;99.90;;;;;;5112273;27;20517;-39
2023/06/16 04:43:49;;;;;;;19.90;18.08;;;21.10;99.90;;;;;;5125466;27;20097;-39
2023/06/16 04:46:14;;;;;;;18.63;17.10;;;21.50;99.90;;;;;;5134734;27;20594;-40
2023/06/16 04:48:40;;;;;;;18.58;17.02;;;22.00;99.90;;;;;;5135577;27;20473;-40
2023/06/16 04:51:06;;;;;;;17.98;16.45;;;22.30;99.90;;;;;;5134565;27;20733;-40
2023/06/16 04:53:32;;;;;;;18.42;16.95;;;22.60;99.90;;;;;;5116968;27;20042;-40
2023/06/16 04:55:57;;;;;;;18.25;16.75;;;23.00;99.90;;;;;;5134752;27;20041;-40
2023/06/16 04:58:23;;;;;;;17.20;15.48;;;23.40;99.90;;;;;;5134813;27;20084;-40
2023/06/16 05:00:50;;;;;;;17.90;16.40;;;23.90;99.90;;;;;;5128437;27;20043;-40
2023/06/16 05:03:16;;;;;;;16.80;15.40;;;24.50;99.90;;;;;;5127571;27;20027;-41
2023/06/16 05:05:42;;;;;;;18.02;16.58;;;25.00;99.90;;;;;;5116266;27;20046;-41
2023/06/16 05:08:07;;;;;;;17.65;15.93;;;25.20;97.90;;;;;;5135861;27;20456;-41
2023/06/16 05:10:33;;;;;;;17.80;16.35;;;25.70;97.20;;;;;;5134454;27;20370;-41
2023/06/16 05:12:59;;;;;;;17.23;15.88;;;26.00;97.90;;;;;;5115750;27;20058;-41
2023/06/16 05:15:25;;;;;;;17.25;15.85;;;26.50;97.40;;;;;;5133900;27;20035;-41
2023/06/16 05:17:51;;;;;;;18.58;16.98;;;26.90;96.70;;;;;;5134380;27;20512;-41
2023/06/16 05:20:16;;;;;;;17.23;15.85;;;27.10;96.40;;;;;;5114305;27;20438;-41
2023/06/16 05:22:42;;;;;;;18.30;16.63;;;27.80;96.30;;;;;;5083773;28;20184;-41
2023/06/16 05:25:08;;;;;;;19.05;17.55;;;28.30;95.00;;;;;;5133282;27;20372;-42
2023/06/16 05:27:34;;;;;;;17.75;16.45;;;28.40;94.30;;;;;;5116419;27;20070;-41
2023/06/16 05:30:00;;;;;;;19.90;18.40;;;28.80;94.60;;;;;;5120065;27;20070;-39
2023/06/16 05:32:25;;;;;;;20.70;18.95;;;28.50;94.00;;;;;;5094169;27;20054;-42
2023/06/16 05:34:52;;;;;;;19.85;18.05;;;28.60;94.10;;;;;;5117097;27;20047;-41
2023/06/16 05:37:19;;;;;;;20.55;18.75;;;28.70;93.90;;;;;;5107835;27;20546;-41
2023/06/16 05:39:48;;;;;;;19.33;17.85;;;28.80;93.60;;;;;;5112231;27;20553;-41
2023/06/16 05:42:15;;;;;;;19.70;18.10;;;29.40;93.40;;;;;;5099384;27;20058;-41
2023/06/16 05:44:44;;;;;;;19.20;17.55;;;29.70;93.20;;;;;;5116904;27;20488;-39
2023/06/16 05:47:11;;;;;;;19.48;17.65;;;30.00;92.10;;;;;;5117227;27;20576;-40
2023/06/16 05:49:37;;;;;;;19.20;17.40;;;30.10;92.10;;;;;;5098924;27;20095;-41
2023/06/16 05:52:05;;;;;;;19.63;18.13;;;30.40;92.10;;;;;;5117473;27;20043;-41
2023/06/16 05:54:31;;;;;;;20.20;18.58;;;30.40;91.70;;;;;;5117898;27;20473;-41
2023/06/16 05:56:57;;;;;;;18.23;16.83;;;30.90;91.40;;;;;;5117866;27;20065;-40
2023/06/16 05:59:24;;;;;;;18.45;17.15;;;31.20;91.20;;;;;;5118391;27;20039;-39
2023/06/16 06:01:50;;;;;;;18.23;16.83;;;31.20;90.90;;;;;;5117983;27;20043;-40
2023/06/16 06:04:21;;;;;;;19.58;18.08;;;31.40;90.70;;;;;;5118003;27;20042;-39
2023/06/16 06:06:48;;;;;;;18.33;16.85;;;31.50;88.40;;;;;;5117404;27;20070;-41
2023/06/16 06:09:13;;;;;;;16.83;15.52;;;31.50;88.60;;;;;;5117592;27;20942;-40
2023/06/16 06:11:39;;;;;;;17.20;15.93;;;31.80;88.30;;;;;;5098275;27;20047;-40
2023/06/16 06:14:05;;;;;;;16.52;15.23;;;31.50;85.60;;;;;;5112413;27;20035;-41
2023/06/16 06:16:32;;;;;;;18.02;16.70;;;32.00;86.90;;;;;;5105703;27;20039;-42
2023/06/16 06:18:57;;;;;;;16.70;15.50;;;32.10;85.10;;;;;;5099437;27;20039;-42
2023/06/16 06:21:24;;;;;;;18.25;16.70;;;31.70;85.90;;;;;;5089690;27;20193;-41
2023/06/16 06:23:49;;;;;;;16.08;14.85;;;32.10;85.90;;;;;;5106906;27;20071;-40
2023/06/16 06:26:15;;;;;;;15.57;14.38;;;32.60;85.80;;;;;;5112056;27;20154;-41
2023/06/16 06:28:41;;;;;;;16.23;14.82;;;33.00;84.20;;;;;;5086982;27;20090;-41
2023/06/16 06:31:06;;;;;;;14.00;12.90;;;33.10;82.50;;;;;;5107718;27;20046;-40
2023/06/16 06:33:32;;;;;;;16.30;14.90;;;33.10;81.80;;;;;;5104740;27;20151;-42
2023/06/16 06:35:58;;;;;;;15.23;13.88;;;33.10;81.40;;;;;;5123701;27;20054;-40
2023/06/16 06:38:23;;;;;;;15.48;14.18;;;33.00;81.40;;;;;;5105403;27;20603;-40
2023/06/16 06:40:49;;;;;;;15.43;14.18;;;32.50;81.40;;;;;;5091654;27;20059;-40
2023/06/16 06:43:15;;;;;;;15.07;13.88;;;32.30;82.40;;;;;;5123001;27;20050;-41
2023/06/16 06:45:41;;;;;;;15.50;13.88;;;32.70;81.70;;;;;;5086841;27;20043;-40
2023/06/16 06:48:06;;;;;;;16.90;13.85;;;33.00;81.20;;;;;;5090845;27;20157;-42
2023/06/16 06:50:32;;;;;;;14.15;12.82;;;33.10;80.40;;;;;;5107311;27;20495;-42
2023/06/16 06:52:57;;;;;;;14.68;13.48;;;33.20;80.00;;;;;;5110821;27;20135;-41
2023/06/16 06:55:23;;;;;;;14.90;13.30;;;33.40;78.90;;;;;;5112954;27;20135;-41
2023/06/16 06:57:49;;;;;;;13.35;12.20;;;33.30;78.30;;;;;;5112588;27;20035;-40
2023/06/16 07:00:16;;;;;;;14.23;13.13;;;33.60;79.00;;;;;;5113982;27;20149;-40
2023/06/16 07:02:41;;;;;;;14.10;13.00;;;33.10;77.80;;;;;;5093987;27;20068;-41
2023/06/16 07:05:08;;;;;;;13.18;12.10;;;33.10;78.40;;;;;;5092570;27;20051;-41
2023/06/16 07:07:34;;;;;;;13.00;11.88;;;32.50;79.10;;;;;;5111873;27;20039;-40
2023/06/16 07:10:00;;;;;;;13.25;12.18;;;32.50;79.70;;;;;;5111229;27;20488;-40
2023/06/16 07:12:26;;;;;;;14.18;12.98;;;32.50;79.60;;;;;;5111999;27;20437;-40
2023/06/16 07:14:51;;;;;;;13.15;12.15;;;32.40;79.30;;;;;;5112144;27;20542;-41
2023/06/16 07:17:17;;;;;;;13.88;12.77;;;32.50;79.30;;;;;;5109747;27;20126;-42
2023/06/16 07:19:43;;;;;;;11.70;10.70;;;32.80;77.20;;;;;;5110180;27;20409;-41
2023/06/16 07:22:09;;;;;;;11.85;10.90;;;32.70;77.80;;;;;;5110397;27;20100;-41
2023/06/16 07:24:35;;;;;;;13.68;12.48;;;32.30;79.10;;;;;;5092785;27;20810;-40
2023/06/16 07:27:01;;;;;;;11.82;10.82;;;32.20;79.00;;;;;;5113009;27;20135;-40
2023/06/16 07:29:28;;;;;;;12.77;11.68;;;31.40;79.30;;;;;;5074634;27;20455;-41
2023/06/16 07:31:53;;;;;;;12.48;11.40;;;31.00;79.70;;;;;;5105049;27;20051;-41
2023/06/16 07:34:19;;;;;;;13.18;12.18;;;30.60;81.10;;;;;;5106284;27;20083;-40
2023/06/16 07:36:45;;;;;;;13.10;11.82;;;30.30;80.60;;;;;;5108719;27;20046;-40
2023/06/16 07:39:11;;;;;;;12.60;11.70;;;29.90;81.20;;;;;;5106729;27;20039;-41
2023/06/16 07:41:37;;;;;;;13.57;12.02;;;29.90;83.20;;;;;;5108313;27;20085;-40
2023/06/16 07:44:05;;;;;;;12.30;11.20;;;29.60;83.80;;;;;;5108776;27;20540;-40
2023/06/16 07:46:32;;;;;;;11.90;10.82;;;29.10;84.30;;;;;;5093179;27;20055;-40
2023/06/16 07:48:58;;;;;;;12.10;10.88;;;29.20;85.20;;;;;;5110883;27;20064;-40
2023/06/16 07:51:25;;;;;;;14.90;11.10;;;28.90;85.90;;;;;;5110828;27;20043;-40
2023/06/16 07:53:51;;;;;;;12.55;11.30;;;28.50;84.60;;;;;;5111091;27;20146;-40
2023/06/16 07:56:18;;;;;;;11.88;10.68;;;28.20;87.50;;;;;;5113026;27;20039;-40
2023/06/16 07:58:44;;;;;;;12.82;11.73;;;28.30;86.20;;;;;;5094452;27;20087;-39
2023/06/16 08:01:10;;;;;;;10.95;9.85;;;28.20;86.70;;;;;;5091383;27;20166;-39
2023/06/16 08:03:36;;;;;;;11.30;10.30;;;28.20;87.30;;;;;;5111498;27;20580;-40
2023/06/16 08:06:02;;;;;;;12.77;10.70;;;28.20;86.30;;;;;;5111346;27;20047;-40
2023/06/16 08:08:28;;;;;;;10.02;9.05;;;27.90;85.90;;;;;;5073913;27;20085;-39
2023/06/16 08:10:57;;;;;;;10.45;9.45;;;28.00;86.50;;;;;;5089138;27;20055;-39
2023/06/16 08:13:24;;;;;;;11.43;10.32;;;28.00;87.00;;;;;;5109029;27;20047;-40
2023/06/16 08:15:50;;;;;;;10.27;9.38;;;27.80;87.30;;;;;;5110288;27;20077;-40
2023/06/16 08:18:17;;;;;;;10.25;8.93;;;27.70;86.10;;;;;;5109675;27;20077;-39
2023/06/16 08:20:45;;;;;;;10.32;9.30;;;27.70;87.70;;;;;;5091838;27;20050;-40
2023/06/16 08:23:11;;;;;;;9.82;8.70;;;27.60;86.80;;;;;;5109690;27;20854;-40
2023/06/16 08:25:37;;;;;;;9.65;8.85;;;27.60;87.40;;;;;;5110708;27;20035;-40
2023/06/16 08:28:05;;;;;;;8.88;8.05;;;27.60;86.90;;;;;;5111928;27;20030;-39
2023/06/16 08:30:31;;;;;;;10.95;8.30;;;27.70;88.10;;;;;;5108029;27;20039;-39
2023/06/16 08:32:56;;;;;;;8.10;7.30;;;27.70;85.40;;;;;;5112279;27;20034;-40
2023/06/16 08:35:22;;;;;;;7.15;6.53;;;27.50;84.30;;;;;;5089340;27;20047;-39
2023/06/16 08:37:48;;;;;;;7.07;6.38;;;27.50;84.30;;;;;;5109540;27;20101;-40
2023/06/16 08:40:13;;;;;;;7.93;6.30;;;27.40;85.60;;;;;;5104498;27;20075;-40
2023/06/16 08:42:42;;;;;;;6.55;5.90;;;27.50;84.40;;;;;;5107623;27;20050;-40
2023/06/16 08:45:09;;;;;;;7.75;7.00;;;27.40;84.00;;;;;;5108296;27;20047;-39
2023/06/16 08:47:38;;;;;;;6.88;6.20;;;27.40;85.50;;;;;;5109260;27;20423;-40
2023/06/16 08:50:08;;;;;;;6.85;6.35;;;27.30;86.00;;;;;;5110707;27;20062;-40
2023/06/16 08:52:45;;;;;;;7.18;6.47;;;27.20;84.30;;;;;;5109814;27;20043;-41
2023/06/16 08:55:13;;;;;;;6.85;6.15;;;27.20;85.50;;;;;;5106887;27;20446;-39
2023/06/16 08:57:47;;;;;;;8.48;6.93;;;27.20;87.30;;;;;;5108230;27;20043;-39
2023/06/16 09:00:14;;;;;;;10.13;6.50;;;27.20;85.50;;;;;;5068433;27;20124;-39
2023/06/16 09:02:41;;;;;;;7.43;6.72;;;27.30;87.40;;;;;;5114747;27;20043;-39
2023/06/16 09:05:10;;;;;;;7.43;5.82;;;27.30;86.10;;;;;;5112779;27;20039;-46
2023/06/16 09:07:39;;;;;;;9.27;6.30;;;27.20;85.20;;;;;;5114770;27;20861;-39
2023/06/16 09:10:05;;;;;;;6.78;6.05;;;27.40;85.50;;;;;;5091228;27;20043;-39
2023/06/16 09:12:31;;;;;;;8.35;6.43;;;27.20;82.10;;;;;;5084499;27;20764;-39
2023/06/16 09:14:58;;;;;;;7.40;5.97;;;26.90;80.60;;;;;;5108841;27;20114;-40
2023/06/16 09:17:25;;;;;;;6.70;5.90;;;27.00;81.90;;;;;;5091327;27;20051;-40
2023/06/16 09:19:52;;;;;;;6.40;5.80;;;27.00;82.00;;;;;;5114762;27;20043;-39
2023/06/16 09:22:20;;;;;;;5.25;4.70;;;27.10;80.80;;;;;;5113305;27;20039;-39
2023/06/16 09:24:56;;;;;;;5.30;4.80;;;27.00;80.20;;;;;;5093649;27;20548;-40
2023/06/16 09:27:26;;;;;;;7.00;4.93;;;27.00;79.30;;;;;;5088242;27;20046;-39
2023/06/16 09:29:58;;;;;;;6.93;5.63;;;27.20;78.20;;;;;;5111570;27;20042;-39
2023/06/16 09:32:24;;;;;;;7.18;4.70;;;27.10;76.20;;;;;;5114835;27;20146;-40
2023/06/16 09:34:50;;;;;;;5.40;4.30;;;27.00;76.60;;;;;;5114406;27;20070;-40
2023/06/16 09:37:20;;;;;;;6.43;4.65;;;27.20;75.90;;;;;;5112912;27;20066;-39
2023/06/16 09:39:46;;;;;;;6.68;4.47;;;27.30;74.70;;;;;;5110762;27;20074;-40
2023/06/16 09:42:12;;;;;;;6.53;4.88;;;27.20;74.80;;;;;;5092666;27;20884;-39
2023/06/16 09:44:40;;;;;;;6.47;4.50;;;27.40;74.40;;;;;;5092235;27;20043;-40
2023/06/16 09:47:06;;;;;;;6.70;4.53;;;27.30;73.90;;;;;;5111940;27;20365;-40
2023/06/16 09:49:32;;;;;;;6.72;4.40;;;27.40;74.90;;;;;;5096700;27;20464;-39
2023/06/16 09:51:58;;;;;;;5.68;4.20;;;27.50;75.10;;;;;;5114788;27;20550;-39
2023/06/16 09:54:26;;;;;;;5.05;4.53;;;27.40;72.90;;;;;;5111629;27;20099;-40
2023/06/16 09:56:59;;;;;;;6.97;4.20;;;27.40;73.80;;;;;;5114504;27;20059;-39
2023/06/16 09:59:26;;;;;;;4.80;4.28;;;27.20;72.80;;;;;;5114308;27;20286;-39
2023/06/16 10:01:54;;;;;;;6.15;5.22;;;27.10;73.60;;;;;;5114496;27;20084;-41
2023/06/16 10:04:22;;;;;;;5.72;3.88;;;27.10;73.10;;;;;;5094939;27;20504;-40
2023/06/16 10:07:00;;;;;;;4.47;3.80;;;27.20;73.40;;;;;;5114922;27;20039;-39
2023/06/16 10:09:32;;;;;;;8.48;4.25;;;27.10;72.80;;;;;;5113354;27;20039;-40
2023/06/16 10:11:58;;;;;;;5.82;3.92;;;26.90;73.60;;;;;;5092883;27;20050;-40
2023/06/16 10:14:27;;;;;;;5.32;4.03;;;26.90;72.00;;;;;;5114396;27;20507;-40
2023/06/16 10:16:55;;;;;;;6.97;4.65;;;27.00;72.10;;;;;;5099313;27;20046;-39
2023/06/16 10:19:22;;;;;;;9.93;4.20;;;27.10;73.20;;;;;;5106890;27;20039;-40
2023/06/16 10:21:50;;;;;;;7.50;3.88;;;27.00;73.30;;;;;;5113640;27;20668;-40
2023/06/16 10:24:17;;;;;;;6.45;3.50;;;26.80;72.10;;;;;;5112439;27;20854;-40
2023/06/16 10:26:43;;;;;;;5.45;3.83;;;26.80;74.00;;;;;;5111979;27;20038;-40
2023/06/16 10:29:12;;;;;;;4.22;3.80;;;26.70;72.10;;;;;;5111069;27;20196;-40
2023/06/16 10:31:39;;;;;;;4.55;3.33;;;26.80;73.20;;;;;;5111463;27;20818;-40
2023/06/16 10:34:05;;;;;;;5.50;3.70;;;26.90;73.20;;;;;;5110561;27;20155;-40
2023/06/16 10:36:33;;;;;;;7.60;3.85;;;27.00;71.90;;;;;;5113876;27;20158;-40
2023/06/16 10:39:02;;;;;;;5.32;3.95;;;27.20;72.20;;;;;;5090233;27;20055;-40
2023/06/16 10:41:29;;;;;;;4.75;3.92;;;27.20;71.60;;;;;;5087077;27;20043;-40
2023/06/16 10:43:56;;;;;;;6.65;3.28;;;27.40;72.80;;;;;;5108581;27;20039;-40
2023/06/16 10:46:21;;;;;;;5.47;3.40;;;27.50;72.10;;;;;;5104205;27;20122;-41
2023/06/16 10:49:05;;;;;;;4.28;3.88;;;27.40;71.50;;;;;;5102715;27;20043;-41
2023/06/16 10:51:41;;;;;;;5.85;4.00;;;27.10;72.00;;;;;;5097787;27;20829;-40
2023/06/16 10:54:10;;;;;;;5.70;4.30;;;27.00;69.80;;;;;;5107826;27;20047;-40
2023/06/16 10:57:04;;;;;;;5.60;4.18;;;27.00;71.90;;;;;;5084912;28;20959;-40
2023/06/16 10:59:50;;;;;;;4.80;4.25;;;26.90;72.10;;;;;;5101756;27;20062;-40
2023/06/16 11:02:26;;;;;;;7.40;4.28;;;26.90;71.10;;;;;;5114329;27;20055;-40
2023/06/16 11:05:07;;;;;;;7.90;4.32;;;26.90;71.30;;;;;;5090376;27;20047;-40
2023/06/16 11:07:40;;;;;;;4.55;3.63;;;27.10;72.90;;;;;;5077884;27;20047;-41
2023/06/16 11:10:10;;;;;;;6.68;4.22;;;27.20;71.10;;;;;;5110548;27;20525;-40
2023/06/16 11:12:36;;;;;;;7.32;4.10;;;27.40;70.40;;;;;;5114428;27;20532;-40
2023/06/16 11:15:04;;;;;;;4.20;3.80;;;27.40;70.70;;;;;;5097173;27;20043;-40
2023/06/16 11:17:29;;;;;;;8.38;3.60;;;27.20;70.30;;;;;;5087480;27;20566;-40
2023/06/16 11:19:55;;;;;;;5.18;3.90;;;27.30;71.00;;;;;;5062327;27;20043;-40
2023/06/16 11:22:30;;;;;;;4.40;3.85;;;27.20;71.30;;;;;;5081011;27;20047;-40
2023/06/16 11:24:57;;;;;;;9.32;4.20;;;27.40;72.30;;;;;;5075974;27;20058;-39
2023/06/16 11:27:25;;;;;;;5.05;3.70;;;27.20;71.30;;;;;;5078368;27;20062;-41
2023/06/16 11:29:53;;;;;;;7.95;3.65;;;27.30;72.80;;;;;;5111851;27;20043;-40
2023/06/16 11:32:26;;;;;;;5.85;3.78;;;27.30;72.40;;;;;;5106764;27;20055;-40
2023/06/16 11:34:55;;;;;;;;;;;27.30;73.10;;;;;;5118858;27;20100;-40
2023/06/16 11:37:21;;;;;;;4.88;3.92;;;27.30;74.70;;;;;;5101200;27;20012;-40
2023/06/16 11:39:47;;;;;;;6.65;4.38;;;27.20;74.30;;;;;;5106268;27;20047;-41
2023/06/16 11:42:16;;;;;;;8.02;4.57;;;27.10;73.40;;;;;;5115655;27;20108;-41
2023/06/16 11:44:42;;;;;;;4.57;3.83;;;26.90;72.10;;;;;;5124288;27;20039;-40
2023/06/16 11:47:09;;;;;;;5.32;3.80;;;27.00;73.50;;;;;;5127927;27;20405;-40
2023/06/16 11:49:36;;;;;;;4.55;4.15;;;26.90;73.20;;;;;;5115181;27;20419;-40
2023/06/16 11:52:06;;;;;;;6.53;3.83;;;26.90;73.80;;;;;;5115842;27;20047;-40
2023/06/16 11:54:35;;;;;;;5.18;4.05;;;26.90;74.40;;;;;;5115617;27;20146;-40
2023/06/16 11:57:01;;;;;;;7.32;4.07;;;26.80;75.10;;;;;;5115015;27;20627;-40
2023/06/16 11:59:32;;;;;;;5.28;4.35;;;26.80;73.70;;;;;;5114298;27;20126;-41
2023/06/16 12:02:00;;;;;;;4.78;4.15;;;26.80;73.30;;;;;;5119564;27;20499;-40
2023/06/16 12:04:27;;;;;;;11.25;4.90;;;26.80;72.80;;;;;;5113882;27;20050;-40
2023/06/16 12:06:56;;;;;;;5.88;4.65;;;27.00;73.90;;;;;;5095041;27;20493;-40
2023/06/16 12:09:22;;;;;;;4.65;4.07;;;26.80;73.30;;;;;;5115441;27;20415;-40
2023/06/16 12:11:48;;;;;;;6.40;4.43;;;27.00;75.30;;;;;;5109922;27;20039;-40
2023/06/16 12:14:21;;;;;;;7.45;4.07;;;26.90;73.60;;;;;;5133317;27;20046;-40
2023/06/16 12:16:51;;;;;;;4.22;3.80;;;26.70;74.70;;;;;;5130278;27;20706;-40
2023/06/16 12:19:19;;;;;;;7.45;4.35;;;26.60;73.70;;;;;;5133228;27;20049;-40
2023/06/16 12:21:51;;;;;;;5.60;4.32;;;26.70;73.40;;;;;;5093059;27;20116;-40
2023/06/16 12:24:22;;;;;;;6.18;4.20;;;26.70;74.00;;;;;;5114402;27;20142;-39
2023/06/16 12:26:51;;;;;;;5.68;3.80;;;26.70;72.00;;;;;;5113291;27;20042;-40
2023/06/16 12:29:17;;;;;;;4.60;3.85;;;26.70;72.50;;;;;;5098872;27;20513;-41
2023/06/16 12:31:50;;;;;;;6.47;4.25;;;26.80;72.80;;;;;;5085145;27;20079;-39
2023/06/16 12:34:33;;;;;;;5.30;3.83;;;26.70;73.20;;;;;;5096689;27;20035;-40
2023/06/16 12:37:07;;;;;;;9.00;4.10;;;26.70;72.70;;;;;;5103856;27;20047;-40